Wuhan Tianhe International Airport
ZHHH : rendu visible

Aérodrome :











RETROUVEZ-NOUS SUR...

 
LOGIN :

S'inscrire | Disclaimer

   EN    FR    IT 

 









Légende :    VFR   VFR Marginal   IFR   IFR Intensif   IFR Très Intensif
Visi : 
Plafond : 
>= 8 km
>= 3000ft
5 à 8 km
1000 à 3000 ft
1500m à 5 km
500 à 1000 ft
800 à 1500m
200 à 500 ft
< 800m
< 200 ft
Symboles :   Orages  Brouillard  Fortes neiges  Fortes précipitations  Vent > 20 kt






- Altitude de l'aérodrome : 113 ft
- Code IATA : WUH


ZHHH - Wuhan Tianhe International

DERNIER METAR :
  • 151500Z 35002MPS 320V030 5000 BR NSC 10/06 Q1017 NOSIG

METARs EXPIRÉS :
  • 151400Z 36002MPS 320V020 5000 HZ NSC 10/05 Q1017 NOSIG
  • 151300Z VRB01MPS 5000 HZ NSC 10/05 Q1017 NOSIG

TAF TAF ZHHH
Valide du 15 à 12h jusqu'au 16 à 12h UTC


150827Z 1512/1612 05003MPS 3000 HZ NSC TX14/1607Z TN06/1522Z
BECMG 1522/1523 2000 BR
BECMG 1601/1602 3000 HZ



MET'MAP, la Météo Aéronautique d'un coup d'oeil ! - Copyright ORBIFLY Décembre 2007 - Disclaimer

ORBIFLY MET'MAP TEAM :

Programmation & Développement : Alexandra Zaïnal
Sur une idée originale de : Baudouin d'Aumeries
Assistance à la programmation : Marc-Olivier Méhu
Soutien technique & logistique : Manuel Goepfert

Contact : metmap@orbifly.com




SOURCES & CREDITS :

   NOAA       Earth
Advisory